Sommer S — WDG3830 — position and weather

sailwx.info

Track history (hours):
 
Tides and Currents Weather Stations Pressure Air Temp Water Temp Dewpoint Dewpoint Depression Visibility Wind Speed Wind Dir Waves Ship Positions

Sommer S

Owner: Shaver Transportation Company, Portland, OR. More information available from US FCC via Universal Licensing System and Coast Guard Vessel Documentation Center.

Last reported at 2017-Jan-17 02:33 UTC. Time now 2017-Jan-17 02:54 UTC.
Position N 45°38' W 122°43'.

Length 25 m; draft 16.5 m.

Type: Tug. MMSI: 367530080.

Date/timePositionNaut miles runAvg speedWind from/ knotsBaromVisibWave heightAir tempDewpointWater temp
2017-Jan-17 02:33N 45°38' W 122°43'0 0.0
2017-Jan-17 01:33N 45°38' W 122°43'2 2.3
2017-Jan-17 00:34N 45°39' W 122°46'1 0.9
2017-Jan-16 23:33N 45°38' W 122°47'5 5.1
2017-Jan-16 22:34N 45°34' W 122°44'0 0.0
2017-Jan-16 21:34N 45°34' W 122°44'0 0.0
2017-Jan-16 20:34N 45°34' W 122°44'0 0.0
2017-Jan-16 19:34N 45°34' W 122°44'2 2.4
2017-Jan-16 18:33N 45°32' W 122°41'1 0.7
2017-Jan-16 17:33N 45°33' W 122°42'2 1.8
2017-Jan-16 16:34N 45°34' W 122°44'1 0.6
2017-Jan-16 15:34N 45°34' W 122°44'2 2.5
2017-Jan-16 14:34N 45°36' W 122°46'2 1.5
2017-Jan-16 13:33N 45°37' W 122°47'2 1.9
2017-Jan-16 12:34N 45°39' W 122°45'0 0.0
2017-Jan-16 11:34N 45°39' W 122°45'0 0.0
2017-Jan-16 10:34N 45°39' W 122°45'0 0.0
2017-Jan-16 09:34N 45°39' W 122°45'0 0.0
2017-Jan-16 08:34N 45°39' W 122°45'0 0.0
2017-Jan-16 07:34N 45°39' W 122°45'8 7.8
2017-Jan-16 06:34N 45°46' W 122°46'8 8.0
2017-Jan-16 05:34N 45°54' W 122°48'7 7.1
2017-Jan-16 04:34N 46°01' W 122°52'1 0.9
2017-Jan-16 03:33N 46°02' W 122°53'0 0.0
2017-Jan-16 02:34N 46°02' W 122°53'0 0.5
2017-Jan-16 01:34N 46°02' W 122°53'4 4.0
2017-Jan-16 00:34N 46°05' W 122°56'2 1.7
2017-Jan-15 23:34N 46°07' W 122°58'2 1.8
2017-Jan-15 22:34N 46°08' W 122°60'2 1.8
2017-Jan-15 21:34N 46°07' W 122°58'0 0.1
2017-Jan-15 20:34N 46°06' W 122°58'0 0.0
2017-Jan-15 19:34N 46°06' W 122°58'2 1.5
2017-Jan-15 18:33N 46°06' W 122°56'8 7.7
2017-Jan-15 17:34N 45°59' W 122°50'1 0.6
2017-Jan-15 16:34N 45°58' W 122°50'1 0.6
2017-Jan-15 15:33N 45°59' W 122°50'0 0.2
2017-Jan-15 14:34N 45°59' W 122°50'4 4.0
2017-Jan-15 13:34N 46°03' W 122°53'1 1.0
2017-Jan-15 12:34N 46°04' W 122°53'0 0.0
2017-Jan-15 11:34N 46°04' W 122°53'0 0.0
2017-Jan-15 10:33N 46°04' W 122°53'1 0.7
2017-Jan-15 09:34N 46°04' W 122°53'2 1.8
2017-Jan-15 08:33N 46°03' W 122°53'0 0.0
2017-Jan-15 07:33N 46°03' W 122°53'0 0.0
2017-Jan-15 06:34N 46°03' W 122°53'1 0.9
2017-Jan-15 05:33N 46°02' W 122°52'1 0.9
2017-Jan-15 04:34N 46°02' W 122°53'4 4.3
2017-Jan-15 03:34N 46°06' W 122°56'0 0.3
2017-Jan-15 02:34N 46°06' W 122°57'0 0.2
2017-Jan-15 01:33N 46°06' W 122°57'3 3.4
2017-Jan-15 00:33N 46°04' W 122°53'1 1.0
2017-Jan-14 23:33N 46°03' W 122°53'0 0.2
2017-Jan-14 22:34N 46°02' W 122°53'1212.0
2017-Jan-14 21:34N 45°51' W 122°47'1212.4
2017-Jan-14 20:33N 45°39' W 122°45'0 0.2
2017-Jan-14 19:34N 45°39' W 122°45'0 0.0
2017-Jan-14 18:34N 45°39' W 122°45'0 0.0
2017-Jan-14 17:34N 45°39' W 122°45'0 0.0
2017-Jan-14 16:33N 45°39' W 122°45'0 0.0
2017-Jan-14 15:34N 45°39' W 122°45'2 2.0
2017-Jan-14 14:33N 45°38' W 122°42'1 1.4
2017-Jan-14 13:33N 45°39' W 122°44'1 0.7
2017-Jan-14 12:33N 45°39' W 122°45'0 0.0
2017-Jan-14 11:34N 45°39' W 122°45'0 0.0
2017-Jan-14 10:33N 45°39' W 122°45'0 0.0
2017-Jan-14 09:34N 45°39' W 122°45'0 0.0
2017-Jan-14 08:33N 45°39' W 122°45'0 0.0
2017-Jan-14 07:33N 45°39' W 122°45'0 0.0
2017-Jan-14 06:34N 45°39' W 122°45'0 0.0
2017-Jan-14 05:33N 45°39' W 122°45'0 0.0
2017-Jan-14 04:34N 45°39' W 122°45'1 0.7
2017-Jan-14 03:33N 45°38' W 122°44'1 0.2
2017-Jan-13 23:33N 45°39' W 122°45'2 2.3
2017-Jan-13 22:33N 45°38' W 122°42'0 0.2
2017-Jan-13 21:33N 45°38' W 122°42'0 0.2
2017-Jan-13 20:34N 45°38' W 122°42'2 2.3
2017-Jan-13 19:33N 45°39' W 122°45'0 0.0
2017-Jan-13 18:34N 45°39' W 122°45'0 0.0
2017-Jan-13 17:33N 45°39' W 122°45'0 0.0
2017-Jan-13 16:34N 45°39' W 122°45'0 0.0
2017-Jan-13 15:33N 45°39' W 122°45'0 0.0
2017-Jan-13 14:34N 45°39' W 122°45'0 0.0
2017-Jan-13 13:33N 45°39' W 122°45'0 0.0
2017-Jan-13 12:33N 45°39' W 122°45'0 0.0
2017-Jan-13 11:34N 45°39' W 122°45'0 0.0
2017-Jan-13 10:34N 45°39' W 122°45'0 0.0
2017-Jan-13 09:33N 45°39' W 122°45'0 0.0
2017-Jan-13 08:34N 45°39' W 122°45'0 0.0
2017-Jan-13 07:34N 45°39' W 122°45'0 0.0
2017-Jan-13 06:33N 45°39' W 122°45'0 0.0
2017-Jan-13 05:34N 45°39' W 122°45'0 0.0
2017-Jan-13 04:34N 45°39' W 122°45'0 0.0
2017-Jan-13 03:33N 45°39' W 122°45'0 0.0
2017-Jan-13 02:34N 45°39' W 122°45'0 0.0
2017-Jan-13 01:33N 45°39' W 122°45'0 0.5
2017-Jan-13 00:34N 45°39' W 122°45'1 1.2
2017-Jan-12 23:34N 45°40' W 122°46'1 0.6
2017-Jan-12 22:34N 45°40' W 122°45'0 0.0
2017-Jan-12 21:34N 45°40' W 122°45'6 6.0
2017-Jan-12 20:33N 45°34' W 122°44'1 0.6
2017-Jan-12 19:34N 45°34' W 122°44'5 5.2
2017-Jan-12 18:34N 45°39' W 122°46'1 0.5
2017-Jan-12 17:34N 45°39' W 122°45'0 0.4
2017-Jan-12 16:34N 45°39' W 122°45'0 0.0
2017-Jan-12 15:34N 45°39' W 122°45'0 0.0
2017-Jan-12 14:34N 45°39' W 122°45'0 0.0
2017-Jan-12 13:34N 45°39' W 122°45'0 0.0
2017-Jan-12 12:34N 45°39' W 122°45'1 0.7
2017-Jan-12 11:33N 45°38' W 122°44'1 1.4
2017-Jan-12 10:34N 45°39' W 122°45'3 3.0
2017-Jan-12 09:33N 45°38' W 122°42'0 0.0
2017-Jan-12 08:34N 45°38' W 122°42'0 0.0
2017-Jan-12 07:34N 45°38' W 122°42'2 2.3
2017-Jan-12 06:33N 45°39' W 122°45'0 0.0
2017-Jan-12 05:33N 45°39' W 122°45'0 0.0
2017-Jan-12 04:34N 45°39' W 122°45'2 1.6
2017-Jan-12 03:33N 45°40' W 122°46'0 0.2
2017-Jan-12 02:34N 45°40' W 122°46'1 0.8
2017-Jan-12 01:34N 45°40' W 122°45'0 0.0
2017-Jan-12 00:34N 45°40' W 122°45'1 0.6
2017-Jan-11 23:33N 45°39' W 122°46'6 5.7
2017-Jan-11 22:33N 45°34' W 122°44'0 0.0
2017-Jan-11 21:34N 45°34' W 122°44'0 0.0
2017-Jan-11 20:34N 45°34' W 122°44'0 0.0
2017-Jan-11 19:34N 45°34' W 122°44'0 0.0
2017-Jan-11 18:34N 45°34' W 122°44'0 0.0
2017-Jan-11 17:34N 45°34' W 122°44'0 0.0
2017-Jan-11 16:34N 45°34' W 122°44'1 0.6
2017-Jan-11 15:33N 45°34' W 122°44'5 4.7
2017-Jan-11 14:34N 45°38' W 122°47'1 1.1
2017-Jan-11 13:33N 45°39' W 122°45'0 0.0
2017-Jan-11 12:34N 45°39' W 122°45'0 0.0
2017-Jan-11 11:34N 45°39' W 122°45'0 0.0
2017-Jan-11 10:33N 45°39' W 122°45'0 0.0
2017-Jan-11 09:33N 45°39' W 122°45'0 0.0
2017-Jan-11 08:34N 45°39' W 122°45'1 1.3
2017-Jan-11 07:33N 45°38' W 122°43'0 0.0
2017-Jan-11 06:34N 45°38' W 122°43'1 1.3
2017-Jan-11 05:34N 45°39' W 122°45'0 0.0
2017-Jan-11 04:34N 45°39' W 122°45'0 0.0
2017-Jan-11 03:34N 45°39' W 122°45'4 4.1
2017-Jan-11 02:34N 45°35' W 122°45'1 1.1
2017-Jan-11 01:34N 45°34' W 122°44'0 0.0
2017-Jan-11 00:33N 45°34' W 122°44'0 0.0
2017-Jan-10 23:33N 45°34' W 122°44'0 0.0
2017-Jan-10 22:34N 45°34' W 122°44'0 0.0
2017-Jan-10 21:33N 45°34' W 122°44'0 0.0
2017-Jan-10 20:34N 45°34' W 122°44'0 0.0
2017-Jan-10 19:33N 45°34' W 122°44'0 0.0
2017-Jan-10 18:34N 45°34' W 122°44'0 0.0
2017-Jan-10 17:34N 45°34' W 122°44'0 0.1
2017-Jan-10 16:33N 45°34' W 122°44'0 0.0
2017-Jan-10 15:34N 45°34' W 122°44'0 0.0
2017-Jan-10 14:34N 45°34' W 122°44'0 0.0
2017-Jan-10 13:34N 45°34' W 122°44'5 4.8
2017-Jan-10 12:33N 45°38' W 122°47'2 2.4
2017-Jan-10 11:34N 45°40' W 122°46'2 1.5
2017-Jan-10 10:34N 45°39' W 122°45'0 0.0
2017-Jan-10 09:34N 45°39' W 122°45'0 0.0
2017-Jan-10 08:34N 45°39' W 122°45'3 2.7
2017-Jan-10 07:34N 45°36' W 122°47'1 1.2
2017-Jan-10 06:33N 45°35' W 122°46'2 1.9
2017-Jan-10 05:34N 45°34' W 122°44'0 0.0
2017-Jan-10 04:33N 45°34' W 122°44'0 0.0
2017-Jan-10 03:34N 45°34' W 122°44'0 0.0
2017-Jan-10 02:33N 45°34' W 122°44'0 0.0
2017-Jan-10 01:33N 45°34' W 122°44'0 0.0
2017-Jan-10 00:33N 45°34' W 122°44'0 0.0
2017-Jan-09 23:34N 45°34' W 122°44'0 0.0
2017-Jan-09 22:34N 45°34' W 122°44'0 0.0
2017-Jan-09 21:33N 45°34' W 122°44'0 0.0
2017-Jan-09 20:33N 45°34' W 122°44'0 0.0
2017-Jan-09 19:34N 45°34' W 122°44'0 0.0
2017-Jan-09 18:34N 45°34' W 122°44'0 0.0
2017-Jan-09 17:34N 45°34' W 122°44'0 0.0
2017-Jan-09 16:34N 45°34' W 122°44'5 4.9
2017-Jan-09 15:34N 45°38' W 122°47'9 8.9
2017-Jan-09 14:34N 45°47' W 122°46'9 9.2
2017-Jan-09 13:34N 45°56' W 122°48'4 3.7
2017-Jan-09 12:34N 45°59' W 122°50'0 0.0
2017-Jan-09 11:33N 45°59' W 122°50'0 0.0
2017-Jan-09 10:34N 45°59' W 122°50'0 0.0
2017-Jan-09 09:34N 45°59' W 122°50'0 0.0
2017-Jan-09 08:34N 45°59' W 122°50'0 0.0
2017-Jan-09 07:34N 45°59' W 122°50'0 0.0
2017-Jan-09 06:34N 45°59' W 122°50'0 0.0
2017-Jan-09 05:33N 45°59' W 122°50'0 0.0
2017-Jan-09 04:34N 45°59' W 122°50'0 0.0
2017-Jan-09 03:33N 45°59' W 122°50'0 0.0
2017-Jan-09 02:34N 45°59' W 122°50'0 0.0
2017-Jan-09 01:34N 45°59' W 122°50'0 0.0
2017-Jan-09 00:33N 45°59' W 122°50'0 0.0
2017-Jan-08 23:34N 45°59' W 122°50'0 0.0
2017-Jan-08 22:34N 45°59' W 122°50'0 0.0
2017-Jan-08 21:34N 45°59' W 122°50'0 0.0
2017-Jan-08 20:34N 45°59' W 122°50'0 0.0
2017-Jan-08 19:34N 45°59' W 122°50'0 0.0
2017-Jan-08 18:33N 45°59' W 122°50'0 0.0
2017-Jan-08 17:34N 45°59' W 122°50'0 0.0
2017-Jan-08 16:33N 45°59' W 122°50'0 0.0
2017-Jan-08 15:33N 45°59' W 122°50'4 3.6
2017-Jan-08 14:33N 46°02' W 122°53'4 3.9
2017-Jan-08 13:33N 46°05' W 122°56'0 0.0
2017-Jan-08 12:34N 46°05' W 122°56'0 0.0
2017-Jan-08 11:33N 46°05' W 122°56'0 0.0
2017-Jan-08 10:33N 46°05' W 122°56'1 0.6
2017-Jan-08 09:33N 46°06' W 122°57'0 0.1
2017-Jan-08 08:34N 46°06' W 122°56'0 0.1
2017-Jan-08 07:33N 46°06' W 122°56'0 0.0
2017-Jan-08 06:33N 46°06' W 122°56'0 0.0
2017-Jan-08 05:33N 46°06' W 122°57'8 8.1
2017-Jan-08 04:33N 45°59' W 122°50'0 0.0
2017-Jan-08 03:34N 45°59' W 122°50'0 0.0
2017-Jan-08 02:34N 45°59' W 122°50'0 0.2
2017-Jan-08 01:33N 45°59' W 122°50'0 0.2
2017-Jan-08 00:33N 45°59' W 122°50'0 0.0
2017-Jan-07 23:33N 45°59' W 122°50'0 0.0
2017-Jan-07 22:33N 45°59' W 122°50'0 0.2
2017-Jan-07 21:33N 45°59' W 122°50'8 8.5
2017-Jan-07 20:34N 45°51' W 122°47'1110.8
2017-Jan-07 19:34N 45°40' W 122°46'1 1.3
2017-Jan-07 18:34N 45°39' W 122°46'3 2.8
2017-Jan-07 17:34N 45°42' W 122°46'1 1.1
2017-Jan-07 16:33N 45°40' W 122°46'2 2.1
2017-Jan-07 15:33N 45°39' W 122°45'0 0.0
2017-Jan-07 14:34N 45°39' W 122°45'0 0.0
2017-Jan-07 13:34N 45°39' W 122°45'0 0.0
2017-Jan-07 12:34N 45°39' W 122°45'0 0.0
2017-Jan-07 11:34N 45°39' W 122°45'0 0.0
2017-Jan-07 10:34N 45°39' W 122°45'0 0.0
2017-Jan-07 09:33N 45°39' W 122°45'0 0.0
2017-Jan-07 08:33N 45°39' W 122°45'0 0.0
2017-Jan-07 07:33N 45°39' W 122°45'0 0.0
2017-Jan-07 06:33N 45°39' W 122°45'1 1.4
2017-Jan-07 05:33N 45°38' W 122°47'1 1.4
2017-Jan-07 04:34N 45°39' W 122°45'0 0.0
2017-Jan-07 03:34N 45°39' W 122°45'0 0.0
2017-Jan-07 02:34N 45°39' W 122°45'  
Track history (hours):
 
Tides and Currents Weather Stations Pressure Air Temp Water Temp Dewpoint Dewpoint Depression Visibility Wind Speed Wind Dir Waves Ship Positions

Sommer S

Owner: Shaver Transportation Company, Portland, OR. More information available from US FCC via Universal Licensing System and Coast Guard Vessel Documentation Center.

Last reported at 2017-Jan-17 02:33 UTC. Time now 2017-Jan-17 02:54 UTC.
Position N 45°38' W 122°43'.

Length 25 m; draft 16.5 m.

Type: Tug. MMSI: 367530080.

Date/timePositionNaut miles runAvg speedWind from/ knotsBaromVisibWave heightAir tempDewpointWater temp
2017-Jan-17 02:33N 45°38' W 122°43'0 0.0
2017-Jan-17 01:33N 45°38' W 122°43'2 2.3
2017-Jan-17 00:34N 45°39' W 122°46'1 0.9
2017-Jan-16 23:33N 45°38' W 122°47'5 5.1
2017-Jan-16 22:34N 45°34' W 122°44'0 0.0
2017-Jan-16 21:34N 45°34' W 122°44'0 0.0
2017-Jan-16 20:34N 45°34' W 122°44'0 0.0
2017-Jan-16 19:34N 45°34' W 122°44'2 2.4
2017-Jan-16 18:33N 45°32' W 122°41'1 0.7
2017-Jan-16 17:33N 45°33' W 122°42'2 1.8
2017-Jan-16 16:34N 45°34' W 122°44'1 0.6
2017-Jan-16 15:34N 45°34' W 122°44'2 2.5
2017-Jan-16 14:34N 45°36' W 122°46'2 1.5
2017-Jan-16 13:33N 45°37' W 122°47'2 1.9
2017-Jan-16 12:34N 45°39' W 122°45'0 0.0
2017-Jan-16 11:34N 45°39' W 122°45'0 0.0
2017-Jan-16 10:34N 45°39' W 122°45'0 0.0
2017-Jan-16 09:34N 45°39' W 122°45'0 0.0
2017-Jan-16 08:34N 45°39' W 122°45'0 0.0
2017-Jan-16 07:34N 45°39' W 122°45'8 7.8
2017-Jan-16 06:34N 45°46' W 122°46'8 8.0
2017-Jan-16 05:34N 45°54' W 122°48'7 7.1
2017-Jan-16 04:34N 46°01' W 122°52'1 0.9
2017-Jan-16 03:33N 46°02' W 122°53'0 0.0
2017-Jan-16 02:34N 46°02' W 122°53'0 0.5
2017-Jan-16 01:34N 46°02' W 122°53'4 4.0
2017-Jan-16 00:34N 46°05' W 122°56'2 1.7
2017-Jan-15 23:34N 46°07' W 122°58'2 1.8
2017-Jan-15 22:34N 46°08' W 122°60'2 1.8
2017-Jan-15 21:34N 46°07' W 122°58'0 0.1
2017-Jan-15 20:34N 46°06' W 122°58'0 0.0
2017-Jan-15 19:34N 46°06' W 122°58'2 1.5
2017-Jan-15 18:33N 46°06' W 122°56'8 7.7
2017-Jan-15 17:34N 45°59' W 122°50'1 0.6
2017-Jan-15 16:34N 45°58' W 122°50'1 0.6
2017-Jan-15 15:33N 45°59' W 122°50'0 0.2
2017-Jan-15 14:34N 45°59' W 122°50'4 4.0
2017-Jan-15 13:34N 46°03' W 122°53'1 1.0
2017-Jan-15 12:34N 46°04' W 122°53'0 0.0
2017-Jan-15 11:34N 46°04' W 122°53'0 0.0
2017-Jan-15 10:33N 46°04' W 122°53'1 0.7
2017-Jan-15 09:34N 46°04' W 122°53'2 1.8
2017-Jan-15 08:33N 46°03' W 122°53'0 0.0
2017-Jan-15 07:33N 46°03' W 122°53'0 0.0
2017-Jan-15 06:34N 46°03' W 122°53'1 0.9
2017-Jan-15 05:33N 46°02' W 122°52'1 0.9
2017-Jan-15 04:34N 46°02' W 122°53'4 4.3
2017-Jan-15 03:34N 46°06' W 122°56'0 0.3
2017-Jan-15 02:34N 46°06' W 122°57'0 0.2
2017-Jan-15 01:33N 46°06' W 122°57'3 3.4
2017-Jan-15 00:33N 46°04' W 122°53'1 1.0
2017-Jan-14 23:33N 46°03' W 122°53'0 0.2
2017-Jan-14 22:34N 46°02' W 122°53'1212.0
2017-Jan-14 21:34N 45°51' W 122°47'1212.4
2017-Jan-14 20:33N 45°39' W 122°45'0 0.2
2017-Jan-14 19:34N 45°39' W 122°45'0 0.0
2017-Jan-14 18:34N 45°39' W 122°45'0 0.0
2017-Jan-14 17:34N 45°39' W 122°45'0 0.0
2017-Jan-14 16:33N 45°39' W 122°45'0 0.0
2017-Jan-14 15:34N 45°39' W 122°45'2 2.0
2017-Jan-14 14:33N 45°38' W 122°42'1 1.4
2017-Jan-14 13:33N 45°39' W 122°44'1 0.7
2017-Jan-14 12:33N 45°39' W 122°45'0 0.0
2017-Jan-14 11:34N 45°39' W 122°45'0 0.0
2017-Jan-14 10:33N 45°39' W 122°45'0 0.0
2017-Jan-14 09:34N 45°39' W 122°45'0 0.0
2017-Jan-14 08:33N 45°39' W 122°45'0 0.0
2017-Jan-14 07:33N 45°39' W 122°45'0 0.0
2017-Jan-14 06:34N 45°39' W 122°45'0 0.0
2017-Jan-14 05:33N 45°39' W 122°45'0 0.0
2017-Jan-14 04:34N 45°39' W 122°45'1 0.7
2017-Jan-14 03:33N 45°38' W 122°44'1 0.2
2017-Jan-13 23:33N 45°39' W 122°45'2 2.3
2017-Jan-13 22:33N 45°38' W 122°42'0 0.2
2017-Jan-13 21:33N 45°38' W 122°42'0 0.2
2017-Jan-13 20:34N 45°38' W 122°42'2 2.3
2017-Jan-13 19:33N 45°39' W 122°45'0 0.0
2017-Jan-13 18:34N 45°39' W 122°45'0 0.0
2017-Jan-13 17:33N 45°39' W 122°45'0 0.0
2017-Jan-13 16:34N 45°39' W 122°45'0 0.0
2017-Jan-13 15:33N 45°39' W 122°45'0 0.0
2017-Jan-13 14:34N 45°39' W 122°45'0 0.0
2017-Jan-13 13:33N 45°39' W 122°45'0 0.0
2017-Jan-13 12:33N 45°39' W 122°45'0 0.0
2017-Jan-13 11:34N 45°39' W 122°45'0 0.0
2017-Jan-13 10:34N 45°39' W 122°45'0 0.0
2017-Jan-13 09:33N 45°39' W 122°45'0 0.0
2017-Jan-13 08:34N 45°39' W 122°45'0 0.0
2017-Jan-13 07:34N 45°39' W 122°45'0 0.0
2017-Jan-13 06:33N 45°39' W 122°45'0 0.0
2017-Jan-13 05:34N 45°39' W 122°45'0 0.0
2017-Jan-13 04:34N 45°39' W 122°45'0 0.0
2017-Jan-13 03:33N 45°39' W 122°45'0 0.0
2017-Jan-13 02:34N 45°39' W 122°45'0 0.0
2017-Jan-13 01:33N 45°39' W 122°45'0 0.5
2017-Jan-13 00:34N 45°39' W 122°45'1 1.2
2017-Jan-12 23:34N 45°40' W 122°46'1 0.6
2017-Jan-12 22:34N 45°40' W 122°45'0 0.0
2017-Jan-12 21:34N 45°40' W 122°45'6 6.0
2017-Jan-12 20:33N 45°34' W 122°44'1 0.6
2017-Jan-12 19:34N 45°34' W 122°44'5 5.2
2017-Jan-12 18:34N 45°39' W 122°46'1 0.5
2017-Jan-12 17:34N 45°39' W 122°45'0 0.4
2017-Jan-12 16:34N 45°39' W 122°45'0 0.0
2017-Jan-12 15:34N 45°39' W 122°45'0 0.0
2017-Jan-12 14:34N 45°39' W 122°45'0 0.0
2017-Jan-12 13:34N 45°39' W 122°45'0 0.0
2017-Jan-12 12:34N 45°39' W 122°45'1 0.7
2017-Jan-12 11:33N 45°38' W 122°44'1 1.4
2017-Jan-12 10:34N 45°39' W 122°45'3 3.0
2017-Jan-12 09:33N 45°38' W 122°42'0 0.0
2017-Jan-12 08:34N 45°38' W 122°42'0 0.0
2017-Jan-12 07:34N 45°38' W 122°42'2 2.3
2017-Jan-12 06:33N 45°39' W 122°45'0 0.0
2017-Jan-12 05:33N 45°39' W 122°45'0 0.0
2017-Jan-12 04:34N 45°39' W 122°45'2 1.6
2017-Jan-12 03:33N 45°40' W 122°46'0 0.2
2017-Jan-12 02:34N 45°40' W 122°46'1 0.8
2017-Jan-12 01:34N 45°40' W 122°45'0 0.0
2017-Jan-12 00:34N 45°40' W 122°45'1 0.6
2017-Jan-11 23:33N 45°39' W 122°46'6 5.7
2017-Jan-11 22:33N 45°34' W 122°44'0 0.0
2017-Jan-11 21:34N 45°34' W 122°44'0 0.0
2017-Jan-11 20:34N 45°34' W 122°44'0 0.0
2017-Jan-11 19:34N 45°34' W 122°44'0 0.0
2017-Jan-11 18:34N 45°34' W 122°44'0 0.0
2017-Jan-11 17:34N 45°34' W 122°44'0 0.0
2017-Jan-11 16:34N 45°34' W 122°44'1 0.6
2017-Jan-11 15:33N 45°34' W 122°44'5 4.7
2017-Jan-11 14:34N 45°38' W 122°47'1 1.1
2017-Jan-11 13:33N 45°39' W 122°45'0 0.0
2017-Jan-11 12:34N 45°39' W 122°45'0 0.0
2017-Jan-11 11:34N 45°39' W 122°45'0 0.0
2017-Jan-11 10:33N 45°39' W 122°45'0 0.0
2017-Jan-11 09:33N 45°39' W 122°45'0 0.0
2017-Jan-11 08:34N 45°39' W 122°45'1 1.3
2017-Jan-11 07:33N 45°38' W 122°43'0 0.0
2017-Jan-11 06:34N 45°38' W 122°43'1 1.3
2017-Jan-11 05:34N 45°39' W 122°45'0 0.0
2017-Jan-11 04:34N 45°39' W 122°45'0 0.0
2017-Jan-11 03:34N 45°39' W 122°45'4 4.1
2017-Jan-11 02:34N 45°35' W 122°45'1 1.1
2017-Jan-11 01:34N 45°34' W 122°44'0 0.0
2017-Jan-11 00:33N 45°34' W 122°44'0 0.0
2017-Jan-10 23:33N 45°34' W 122°44'0 0.0
2017-Jan-10 22:34N 45°34' W 122°44'0 0.0
2017-Jan-10 21:33N 45°34' W 122°44'0 0.0
2017-Jan-10 20:34N 45°34' W 122°44'0 0.0
2017-Jan-10 19:33N 45°34' W 122°44'0 0.0
2017-Jan-10 18:34N 45°34' W 122°44'0 0.0
2017-Jan-10 17:34N 45°34' W 122°44'0 0.1
2017-Jan-10 16:33N 45°34' W 122°44'0 0.0
2017-Jan-10 15:34N 45°34' W 122°44'0 0.0
2017-Jan-10 14:34N 45°34' W 122°44'0 0.0
2017-Jan-10 13:34N 45°34' W 122°44'5 4.8
2017-Jan-10 12:33N 45°38' W 122°47'2 2.4
2017-Jan-10 11:34N 45°40' W 122°46'2 1.5
2017-Jan-10 10:34N 45°39' W 122°45'0 0.0
2017-Jan-10 09:34N 45°39' W 122°45'0 0.0
2017-Jan-10 08:34N 45°39' W 122°45'3 2.7
2017-Jan-10 07:34N 45°36' W 122°47'1 1.2
2017-Jan-10 06:33N 45°35' W 122°46'2 1.9
2017-Jan-10 05:34N 45°34' W 122°44'0 0.0
2017-Jan-10 04:33N 45°34' W 122°44'0 0.0
2017-Jan-10 03:34N 45°34' W 122°44'0 0.0
2017-Jan-10 02:33N 45°34' W 122°44'0 0.0
2017-Jan-10 01:33N 45°34' W 122°44'0 0.0
2017-Jan-10 00:33N 45°34' W 122°44'0 0.0
2017-Jan-09 23:34N 45°34' W 122°44'0 0.0
2017-Jan-09 22:34N 45°34' W 122°44'0 0.0
2017-Jan-09 21:33N 45°34' W 122°44'0 0.0
2017-Jan-09 20:33N 45°34' W 122°44'0 0.0
2017-Jan-09 19:34N 45°34' W 122°44'0 0.0
2017-Jan-09 18:34N 45°34' W 122°44'0 0.0
2017-Jan-09 17:34N 45°34' W 122°44'0 0.0
2017-Jan-09 16:34N 45°34' W 122°44'5 4.9
2017-Jan-09 15:34N 45°38' W 122°47'9 8.9
2017-Jan-09 14:34N 45°47' W 122°46'9 9.2
2017-Jan-09 13:34N 45°56' W 122°48'4 3.7
2017-Jan-09 12:34N 45°59' W 122°50'0 0.0
2017-Jan-09 11:33N 45°59' W 122°50'0 0.0
2017-Jan-09 10:34N 45°59' W 122°50'0 0.0
2017-Jan-09 09:34N 45°59' W 122°50'0 0.0
2017-Jan-09 08:34N 45°59' W 122°50'0 0.0
2017-Jan-09 07:34N 45°59' W 122°50'0 0.0
2017-Jan-09 06:34N 45°59' W 122°50'0 0.0
2017-Jan-09 05:33N 45°59' W 122°50'0 0.0
2017-Jan-09 04:34N 45°59' W 122°50'0 0.0
2017-Jan-09 03:33N 45°59' W 122°50'0 0.0
2017-Jan-09 02:34N 45°59' W 122°50'0 0.0
2017-Jan-09 01:34N 45°59' W 122°50'0 0.0
2017-Jan-09 00:33N 45°59' W 122°50'0 0.0
2017-Jan-08 23:34N 45°59' W 122°50'0 0.0
2017-Jan-08 22:34N 45°59' W 122°50'0 0.0
2017-Jan-08 21:34N 45°59' W 122°50'0 0.0
2017-Jan-08 20:34N 45°59' W 122°50'0 0.0
2017-Jan-08 19:34N 45°59' W 122°50'0 0.0
2017-Jan-08 18:33N 45°59' W 122°50'0 0.0
2017-Jan-08 17:34N 45°59' W 122°50'0 0.0
2017-Jan-08 16:33N 45°59' W 122°50'0 0.0
2017-Jan-08 15:33N 45°59' W 122°50'4 3.6
2017-Jan-08 14:33N 46°02' W 122°53'4 3.9
2017-Jan-08 13:33N 46°05' W 122°56'0 0.0
2017-Jan-08 12:34N 46°05' W 122°56'0 0.0
2017-Jan-08 11:33N 46°05' W 122°56'0 0.0
2017-Jan-08 10:33N 46°05' W 122°56'1 0.6
2017-Jan-08 09:33N 46°06' W 122°57'0 0.1
2017-Jan-08 08:34N 46°06' W 122°56'0 0.1
2017-Jan-08 07:33N 46°06' W 122°56'0 0.0
2017-Jan-08 06:33N 46°06' W 122°56'0 0.0
2017-Jan-08 05:33N 46°06' W 122°57'8 8.1
2017-Jan-08 04:33N 45°59' W 122°50'0 0.0
2017-Jan-08 03:34N 45°59' W 122°50'0 0.0
2017-Jan-08 02:34N 45°59' W 122°50'0 0.2
2017-Jan-08 01:33N 45°59' W 122°50'0 0.2
2017-Jan-08 00:33N 45°59' W 122°50'0 0.0
2017-Jan-07 23:33N 45°59' W 122°50'0 0.0
2017-Jan-07 22:33N 45°59' W 122°50'0 0.2
2017-Jan-07 21:33N 45°59' W 122°50'8 8.5
2017-Jan-07 20:34N 45°51' W 122°47'1110.8
2017-Jan-07 19:34N 45°40' W 122°46'1 1.3
2017-Jan-07 18:34N 45°39' W 122°46'3 2.8
2017-Jan-07 17:34N 45°42' W 122°46'1 1.1
2017-Jan-07 16:33N 45°40' W 122°46'2 2.1
2017-Jan-07 15:33N 45°39' W 122°45'0 0.0
2017-Jan-07 14:34N 45°39' W 122°45'0 0.0
2017-Jan-07 13:34N 45°39' W 122°45'0 0.0
2017-Jan-07 12:34N 45°39' W 122°45'0 0.0
2017-Jan-07 11:34N 45°39' W 122°45'0 0.0
2017-Jan-07 10:34N 45°39' W 122°45'0 0.0
2017-Jan-07 09:33N 45°39' W 122°45'0 0.0
2017-Jan-07 08:33N 45°39' W 122°45'0 0.0
2017-Jan-07 07:33N 45°39' W 122°45'0 0.0
2017-Jan-07 06:33N 45°39' W 122°45'1 1.4
2017-Jan-07 05:33N 45°38' W 122°47'1 1.4
2017-Jan-07 04:34N 45°39' W 122°45'0 0.0
2017-Jan-07 03:34N 45°39' W 122°45'0 0.0
2017-Jan-07 02:34N 45°39' W 122°45'  

Dump ship's entire track history